KEYW

Key West International Airport

Airport
ICAO code
KEYW
IATA Code
EYW
Summary
ICAO Region
NAM
ICAO Territory
Location

Key West, , Florida

Serving
Key West
Elevation
3 ft
Coordinates
24° 33' 25" N , 81° 45' 27" W
KCC
Airport WX
Tropical Revolving Storm
Metar
KEYW 151553Z 07006KT 10SM -RA FEW070 BKN100 OVC120 27/24 A3000 RMK AO2 LTG DSNT E AND SE RAB19 SLP164 P0001 T02720244 $

Key West International Airport is a county-owned public airport located 2 nm east of the central business district of Key West, in Monroe County, Florida, USA.

Airport map

Aerial View

SKYbrary Partners:

Safety knowledge contributed by: